sensor_id;sensor_type;location;lat;lon;timestamp;P1;durP1;ratioP1;P2;durP2;ratioP2
61188;SDS011;47054;39.716;2.904;2023-03-31T00:00:56;46.33;;;20.05;;
61188;SDS011;47054;39.716;2.904;2023-03-31T00:03:43;42.35;;;18.73;;
61188;SDS011;47054;39.716;2.904;2023-03-31T00:06:30;43.75;;;20.50;;
61188;SDS011;47054;39.716;2.904;2023-03-31T00:09:24;47.35;;;19.80;;
61188;SDS011;47054;39.716;2.904;2023-03-31T00:12:13;43.83;;;19.00;;
61188;SDS011;47054;39.716;2.904;2023-03-31T00:14:58;46.40;;;19.17;;
61188;SDS011;47054;39.716;2.904;2023-03-31T00:17:43;41.60;;;18.85;;
61188;SDS011;47054;39.716;2.904;2023-03-31T00:20:27;42.45;;;19.55;;
61188;SDS011;47054;39.716;2.904;2023-03-31T00:23:12;38.75;;;18.27;;
61188;SDS011;47054;39.716;2.904;2023-03-31T00:25:57;44.25;;;18.90;;
61188;SDS011;47054;39.716;2.904;2023-03-31T00:28:42;45.58;;;19.67;;
61188;SDS011;47054;39.716;2.904;2023-03-31T00:31:27;39.83;;;18.20;;
61188;SDS011;47054;39.716;2.904;2023-03-31T00:34:12;40.10;;;17.85;;
61188;SDS011;47054;39.716;2.904;2023-03-31T00:36:56;39.10;;;17.80;;
61188;SDS011;47054;39.716;2.904;2023-03-31T00:39:45;41.15;;;17.92;;
61188;SDS011;47054;39.716;2.904;2023-03-31T00:42:30;40.20;;;18.60;;
61188;SDS011;47054;39.716;2.904;2023-03-31T00:48:06;39.40;;;17.42;;
61188;SDS011;47054;39.716;2.904;2023-03-31T00:50:58;36.97;;;17.13;;
61188;SDS011;47054;39.716;2.904;2023-03-31T00:53:49;37.38;;;17.25;;
61188;SDS011;47054;39.716;2.904;2023-03-31T00:56:44;39.30;;;16.90;;
61188;SDS011;47054;39.716;2.904;2023-03-31T00:59:33;39.50;;;17.08;;
61188;SDS011;47054;39.716;2.904;2023-03-31T01:02:21;37.15;;;16.27;;
61188;SDS011;47054;39.716;2.904;2023-03-31T01:05:10;36.97;;;16.30;;
61188;SDS011;47054;39.716;2.904;2023-03-31T01:07:55;38.90;;;17.30;;
61188;SDS011;47054;39.716;2.904;2023-03-31T01:10:43;35.95;;;17.05;;
61188;SDS011;47054;39.716;2.904;2023-03-31T01:13:33;37.13;;;17.20;;
61188;SDS011;47054;39.716;2.904;2023-03-31T01:16:21;37.03;;;16.30;;
61188;SDS011;47054;39.716;2.904;2023-03-31T01:19:12;32.75;;;15.73;;
61188;SDS011;47054;39.716;2.904;2023-03-31T01:22:48;36.50;;;16.20;;
61188;SDS011;47054;39.716;2.904;2023-03-31T01:46:53;27.40;;;13.60;;
61188;SDS011;47054;39.716;2.904;2023-03-31T01:53:02;32.42;;;14.10;;
61188;SDS011;47054;39.716;2.904;2023-03-31T01:58:49;32.80;;;14.20;;
61188;SDS011;47054;39.716;2.904;2023-03-31T02:01:38;30.17;;;12.95;;
61188;SDS011;47054;39.716;2.904;2023-03-31T02:04:36;30.75;;;14.25;;
61188;SDS011;47054;39.716;2.904;2023-03-31T02:07:31;29.52;;;13.40;;
61188;SDS011;47054;39.716;2.904;2023-03-31T02:10:19;28.50;;;13.05;;
61188;SDS011;47054;39.716;2.904;2023-03-31T02:13:06;28.30;;;12.88;;
61188;SDS011;47054;39.716;2.904;2023-03-31T02:15:57;27.00;;;12.32;;
61188;SDS011;47054;39.716;2.904;2023-03-31T02:18:46;24.98;;;11.90;;
61188;SDS011;47054;39.716;2.904;2023-03-31T02:21:33;28.42;;;12.85;;
61188;SDS011;47054;39.716;2.904;2023-03-31T02:24:23;27.08;;;13.13;;
61188;SDS011;47054;39.716;2.904;2023-03-31T02:29:57;26.85;;;11.95;;
61188;SDS011;47054;39.716;2.904;2023-03-31T02:32:43;27.73;;;12.73;;
61188;SDS011;47054;39.716;2.904;2023-03-31T02:35:29;24.58;;;11.98;;
61188;SDS011;47054;39.716;2.904;2023-03-31T02:38:18;28.02;;;12.50;;
61188;SDS011;47054;39.716;2.904;2023-03-31T02:41:03;26.48;;;11.75;;
61188;SDS011;47054;39.716;2.904;2023-03-31T02:43:47;25.00;;;10.95;;
61188;SDS011;47054;39.716;2.904;2023-03-31T02:46:32;26.70;;;11.85;;
61188;SDS011;47054;39.716;2.904;2023-03-31T02:49:18;26.02;;;11.95;;
61188;SDS011;47054;39.716;2.904;2023-03-31T03:13:36;21.85;;;10.02;;
61188;SDS011;47054;39.716;2.904;2023-03-31T03:16:45;22.35;;;10.45;;
61188;SDS011;47054;39.716;2.904;2023-03-31T03:19:33;19.55;;;9.98;;
61188;SDS011;47054;39.716;2.904;2023-03-31T03:22:17;23.20;;;10.48;;
61188;SDS011;47054;39.716;2.904;2023-03-31T03:25:03;22.08;;;10.48;;
61188;SDS011;47054;39.716;2.904;2023-03-31T03:27:48;20.02;;;9.48;;
61188;SDS011;47054;39.716;2.904;2023-03-31T03:30:35;21.42;;;10.20;;
61188;SDS011;47054;39.716;2.904;2023-03-31T03:33:20;22.45;;;10.18;;
61188;SDS011;47054;39.716;2.904;2023-03-31T03:36:07;21.42;;;10.48;;
61188;SDS011;47054;39.716;2.904;2023-03-31T03:38:52;22.45;;;10.25;;
61188;SDS011;47054;39.716;2.904;2023-03-31T03:41:37;22.40;;;9.85;;
61188;SDS011;47054;39.716;2.904;2023-03-31T03:44:21;18.77;;;9.55;;
61188;SDS011;47054;39.716;2.904;2023-03-31T03:47:06;21.55;;;10.20;;
61188;SDS011;47054;39.716;2.904;2023-03-31T03:49:50;21.67;;;10.05;;
61188;SDS011;47054;39.716;2.904;2023-03-31T03:52:35;18.45;;;9.15;;
61188;SDS011;47054;39.716;2.904;2023-03-31T03:55:20;18.48;;;9.25;;
61188;SDS011;47054;39.716;2.904;2023-03-31T03:58:06;20.27;;;9.50;;
61188;SDS011;47054;39.716;2.904;2023-03-31T04:00:51;21.23;;;9.43;;
61188;SDS011;47054;39.716;2.904;2023-03-31T04:03:35;18.25;;;8.60;;
61188;SDS011;47054;39.716;2.904;2023-03-31T04:06:20;18.88;;;8.70;;
61188;SDS011;47054;39.716;2.904;2023-03-31T04:09:05;18.23;;;9.00;;
61188;SDS011;47054;39.716;2.904;2023-03-31T04:11:49;19.15;;;9.00;;
61188;SDS011;47054;39.716;2.904;2023-03-31T04:14:34;20.08;;;8.95;;
61188;SDS011;47054;39.716;2.904;2023-03-31T04:17:18;16.80;;;8.18;;
61188;SDS011;47054;39.716;2.904;2023-03-31T04:20:15;16.45;;;8.20;;
61188;SDS011;47054;39.716;2.904;2023-03-31T04:23:00;18.92;;;8.77;;
61188;SDS011;47054;39.716;2.904;2023-03-31T04:25:45;18.05;;;8.32;;
61188;SDS011;47054;39.716;2.904;2023-03-31T04:28:36;17.73;;;7.57;;
61188;SDS011;47054;39.716;2.904;2023-03-31T04:31:25;18.88;;;8.63;;
61188;SDS011;47054;39.716;2.904;2023-03-31T04:34:11;19.00;;;8.52;;
61188;SDS011;47054;39.716;2.904;2023-03-31T04:36:58;17.30;;;8.50;;
61188;SDS011;47054;39.716;2.904;2023-03-31T04:39:45;16.85;;;8.07;;
61188;SDS011;47054;39.716;2.904;2023-03-31T04:42:33;19.67;;;8.75;;
61188;SDS011;47054;39.716;2.904;2023-03-31T04:45:19;18.00;;;7.80;;
61188;SDS011;47054;39.716;2.904;2023-03-31T04:48:03;14.65;;;7.75;;
61188;SDS011;47054;39.716;2.904;2023-03-31T04:50:48;16.30;;;8.10;;
61188;SDS011;47054;39.716;2.904;2023-03-31T04:53:33;15.35;;;8.23;;
61188;SDS011;47054;39.716;2.904;2023-03-31T04:56:18;20.50;;;8.15;;
61188;SDS011;47054;39.716;2.904;2023-03-31T04:59:03;17.50;;;8.50;;
61188;SDS011;47054;39.716;2.904;2023-03-31T05:01:48;17.95;;;8.50;;
61188;SDS011;47054;39.716;2.904;2023-03-31T05:04:32;18.20;;;8.75;;
61188;SDS011;47054;39.716;2.904;2023-03-31T05:07:17;18.10;;;8.60;;
61188;SDS011;47054;39.716;2.904;2023-03-31T05:10:03;16.30;;;8.27;;
61188;SDS011;47054;39.716;2.904;2023-03-31T05:12:49;18.00;;;8.48;;
61188;SDS011;47054;39.716;2.904;2023-03-31T05:15:35;19.63;;;9.07;;
61188;SDS011;47054;39.716;2.904;2023-03-31T05:18:21;20.67;;;9.20;;
61188;SDS011;47054;39.716;2.904;2023-03-31T05:21:09;20.55;;;9.05;;
61188;SDS011;47054;39.716;2.904;2023-03-31T05:23:56;17.48;;;8.80;;
61188;SDS011;47054;39.716;2.904;2023-03-31T05:26:41;18.52;;;9.15;;
61188;SDS011;47054;39.716;2.904;2023-03-31T05:29:31;18.48;;;8.65;;
61188;SDS011;47054;39.716;2.904;2023-03-31T05:32:15;16.85;;;8.43;;
61188;SDS011;47054;39.716;2.904;2023-03-31T05:35:00;17.90;;;8.80;;
61188;SDS011;47054;39.716;2.904;2023-03-31T05:37:44;16.67;;;8.07;;
61188;SDS011;47054;39.716;2.904;2023-03-31T05:40:29;16.45;;;8.32;;
61188;SDS011;47054;39.716;2.904;2023-03-31T05:43:13;17.98;;;8.05;;
61188;SDS011;47054;39.716;2.904;2023-03-31T05:45:58;23.08;;;7.95;;
61188;SDS011;47054;39.716;2.904;2023-03-31T05:48:43;17.08;;;7.50;;
61188;SDS011;47054;39.716;2.904;2023-03-31T05:51:28;18.88;;;8.15;;
61188;SDS011;47054;39.716;2.904;2023-03-31T05:54:13;16.83;;;7.97;;
61188;SDS011;47054;39.716;2.904;2023-03-31T05:56:57;16.98;;;7.95;;
61188;SDS011;47054;39.716;2.904;2023-03-31T05:59:42;18.65;;;8.00;;
61188;SDS011;47054;39.716;2.904;2023-03-31T06:02:26;17.73;;;8.00;;
61188;SDS011;47054;39.716;2.904;2023-03-31T06:05:11;14.32;;;7.07;;
61188;SDS011;47054;39.716;2.904;2023-03-31T06:07:56;16.92;;;7.38;;
61188;SDS011;47054;39.716;2.904;2023-03-31T06:10:41;16.13;;;7.38;;
61188;SDS011;47054;39.716;2.904;2023-03-31T06:13:26;17.40;;;7.40;;
61188;SDS011;47054;39.716;2.904;2023-03-31T06:16:11;16.80;;;7.10;;
61188;SDS011;47054;39.716;2.904;2023-03-31T06:18:56;15.80;;;7.35;;
61188;SDS011;47054;39.716;2.904;2023-03-31T06:21:41;14.98;;;6.63;;
61188;SDS011;47054;39.716;2.904;2023-03-31T06:24:25;15.80;;;7.47;;
61188;SDS011;47054;39.716;2.904;2023-03-31T06:27:10;14.07;;;7.43;;
61188;SDS011;47054;39.716;2.904;2023-03-31T06:29:54;17.83;;;6.97;;
61188;SDS011;47054;39.716;2.904;2023-03-31T06:32:39;14.60;;;7.40;;
61188;SDS011;47054;39.716;2.904;2023-03-31T06:35:24;12.60;;;6.80;;
61188;SDS011;47054;39.716;2.904;2023-03-31T06:38:09;15.98;;;7.60;;
61188;SDS011;47054;39.716;2.904;2023-03-31T06:40:54;12.65;;;6.65;;
61188;SDS011;47054;39.716;2.904;2023-03-31T06:43:38;14.50;;;6.50;;
61188;SDS011;47054;39.716;2.904;2023-03-31T06:46:23;15.27;;;6.50;;
61188;SDS011;47054;39.716;2.904;2023-03-31T06:49:08;14.18;;;6.88;;
61188;SDS011;47054;39.716;2.904;2023-03-31T06:51:52;18.75;;;7.25;;
61188;SDS011;47054;39.716;2.904;2023-03-31T06:54:37;15.25;;;6.75;;
61188;SDS011;47054;39.716;2.904;2023-03-31T06:57:21;16.92;;;7.60;;
61188;SDS011;47054;39.716;2.904;2023-03-31T07:00:06;15.57;;;6.88;;
61188;SDS011;47054;39.716;2.904;2023-03-31T07:02:52;15.38;;;6.22;;
61188;SDS011;47054;39.716;2.904;2023-03-31T07:05:37;13.10;;;6.75;;
61188;SDS011;47054;39.716;2.904;2023-03-31T07:08:23;13.27;;;6.50;;
61188;SDS011;47054;39.716;2.904;2023-03-31T07:11:08;11.80;;;6.25;;
61188;SDS011;47054;39.716;2.904;2023-03-31T07:13:53;12.18;;;5.60;;
61188;SDS011;47054;39.716;2.904;2023-03-31T07:16:37;14.70;;;6.78;;
61188;SDS011;47054;39.716;2.904;2023-03-31T07:19:22;14.48;;;6.40;;
61188;SDS011;47054;39.716;2.904;2023-03-31T07:22:09;13.57;;;6.50;;
61188;SDS011;47054;39.716;2.904;2023-03-31T07:24:54;15.88;;;6.40;;
61188;SDS011;47054;39.716;2.904;2023-03-31T07:27:39;13.48;;;6.47;;
61188;SDS011;47054;39.716;2.904;2023-03-31T07:30:24;12.15;;;6.40;;
61188;SDS011;47054;39.716;2.904;2023-03-31T07:33:09;12.77;;;5.85;;
61188;SDS011;47054;39.716;2.904;2023-03-31T07:35:53;12.80;;;6.43;;
61188;SDS011;47054;39.716;2.904;2023-03-31T07:38:39;14.88;;;6.28;;
61188;SDS011;47054;39.716;2.904;2023-03-31T07:41:26;12.63;;;6.65;;
61188;SDS011;47054;39.716;2.904;2023-03-31T07:44:10;12.80;;;6.13;;
61188;SDS011;47054;39.716;2.904;2023-03-31T07:46:55;12.48;;;5.70;;
61188;SDS011;47054;39.716;2.904;2023-03-31T07:49:41;12.05;;;6.15;;
61188;SDS011;47054;39.716;2.904;2023-03-31T07:52:26;12.95;;;6.07;;
61188;SDS011;47054;39.716;2.904;2023-03-31T07:55:11;11.90;;;5.57;;
61188;SDS011;47054;39.716;2.904;2023-03-31T07:57:55;11.52;;;5.68;;
61188;SDS011;47054;39.716;2.904;2023-03-31T08:00:40;12.23;;;6.03;;
61188;SDS011;47054;39.716;2.904;2023-03-31T08:03:24;11.35;;;5.80;;
61188;SDS011;47054;39.716;2.904;2023-03-31T08:06:10;11.80;;;5.80;;
61188;SDS011;47054;39.716;2.904;2023-03-31T08:08:56;12.68;;;5.75;;
61188;SDS011;47054;39.716;2.904;2023-03-31T08:11:41;12.45;;;5.47;;
61188;SDS011;47054;39.716;2.904;2023-03-31T08:14:26;13.07;;;5.70;;
61188;SDS011;47054;39.716;2.904;2023-03-31T08:17:11;12.98;;;6.07;;
61188;SDS011;47054;39.716;2.904;2023-03-31T08:19:55;14.30;;;6.03;;
61188;SDS011;47054;39.716;2.904;2023-03-31T08:22:40;10.60;;;5.38;;
61188;SDS011;47054;39.716;2.904;2023-03-31T08:25:25;9.93;;;5.55;;
61188;SDS011;47054;39.716;2.904;2023-03-31T08:28:09;11.93;;;5.70;;
61188;SDS011;47054;39.716;2.904;2023-03-31T08:31:01;10.93;;;5.57;;
61188;SDS011;47054;39.716;2.904;2023-03-31T08:33:47;10.85;;;5.88;;
61188;SDS011;47054;39.716;2.904;2023-03-31T08:36:32;12.13;;;5.57;;
61188;SDS011;47054;39.716;2.904;2023-03-31T08:39:16;11.63;;;5.70;;
61188;SDS011;47054;39.716;2.904;2023-03-31T08:42:10;9.95;;;4.97;;
61188;SDS011;47054;39.716;2.904;2023-03-31T08:45:01;9.80;;;5.30;;
61188;SDS011;47054;39.716;2.904;2023-03-31T08:47:55;10.13;;;4.97;;
61188;SDS011;47054;39.716;2.904;2023-03-31T08:50:48;13.23;;;5.47;;
61188;SDS011;47054;39.716;2.904;2023-03-31T08:53:42;11.43;;;4.88;;
61188;SDS011;47054;39.716;2.904;2023-03-31T08:56:32;11.95;;;5.93;;
61188;SDS011;47054;39.716;2.904;2023-03-31T09:05:13;9.60;;;5.32;;
61188;SDS011;47054;39.716;2.904;2023-03-31T09:22:44;8.90;;;5.05;;
61188;SDS011;47054;39.716;2.904;2023-03-31T09:25:33;8.80;;;5.05;;
61188;SDS011;47054;39.716;2.904;2023-03-31T09:28:22;9.70;;;4.90;;
61188;SDS011;47054;39.716;2.904;2023-03-31T09:31:16;11.27;;;5.30;;
61188;SDS011;47054;39.716;2.904;2023-03-31T09:34:06;10.15;;;5.20;;
61188;SDS011;47054;39.716;2.904;2023-03-31T09:36:56;12.00;;;4.90;;
61188;SDS011;47054;39.716;2.904;2023-03-31T09:39:41;8.55;;;4.60;;
61188;SDS011;47054;39.716;2.904;2023-03-31T09:42:26;8.27;;;4.75;;
61188;SDS011;47054;39.716;2.904;2023-03-31T09:45:15;8.23;;;4.78;;
61188;SDS011;47054;39.716;2.904;2023-03-31T09:48:11;10.77;;;4.63;;
61188;SDS011;47054;39.716;2.904;2023-03-31T09:51:01;7.65;;;4.53;;
61188;SDS011;47054;39.716;2.904;2023-03-31T09:54:36;9.63;;;4.80;;
61188;SDS011;47054;39.716;2.904;2023-03-31T09:57:11;7.60;;;4.22;;
61188;SDS011;47054;39.716;2.904;2023-03-31T10:00:02;8.60;;;4.70;;
61188;SDS011;47054;39.716;2.904;2023-03-31T10:03:00;8.63;;;4.63;;
61188;SDS011;47054;39.716;2.904;2023-03-31T10:05:50;10.68;;;4.93;;
61188;SDS011;47054;39.716;2.904;2023-03-31T10:08:38;8.85;;;4.50;;
61188;SDS011;47054;39.716;2.904;2023-03-31T10:11:25;9.20;;;4.40;;
61188;SDS011;47054;39.716;2.904;2023-03-31T10:14:14;9.52;;;4.53;;
61188;SDS011;47054;39.716;2.904;2023-03-31T10:17:01;8.88;;;4.35;;
61188;SDS011;47054;39.716;2.904;2023-03-31T10:19:59;8.75;;;4.25;;
61188;SDS011;47054;39.716;2.904;2023-03-31T10:23:05;7.30;;;4.00;;
61188;SDS011;47054;39.716;2.904;2023-03-31T10:26:03;8.32;;;4.20;;
61188;SDS011;47054;39.716;2.904;2023-03-31T10:28:49;9.25;;;4.60;;
61188;SDS011;47054;39.716;2.904;2023-03-31T10:31:38;8.68;;;4.22;;
61188;SDS011;47054;39.716;2.904;2023-03-31T10:34:23;8.18;;;3.85;;
61188;SDS011;47054;39.716;2.904;2023-03-31T10:37:10;10.43;;;4.18;;
61188;SDS011;47054;39.716;2.904;2023-03-31T10:40:01;7.95;;;3.90;;
61188;SDS011;47054;39.716;2.904;2023-03-31T10:43:26;9.77;;;4.10;;
61188;SDS011;47054;39.716;2.904;2023-03-31T10:46:05;7.25;;;3.97;;
61188;SDS011;47054;39.716;2.904;2023-03-31T10:48:50;8.02;;;3.95;;
61188;SDS011;47054;39.716;2.904;2023-03-31T10:51:34;8.32;;;3.90;;
61188;SDS011;47054;39.716;2.904;2023-03-31T10:54:20;9.60;;;4.20;;
61188;SDS011;47054;39.716;2.904;2023-03-31T10:57:05;6.82;;;3.72;;
61188;SDS011;47054;39.716;2.904;2023-03-31T11:13:21;6.85;;;3.20;;
61188;SDS011;47054;39.716;2.904;2023-03-31T11:42:57;7.75;;;3.55;;
61188;SDS011;47054;39.716;2.904;2023-03-31T11:48:50;6.28;;;3.42;;
61188;SDS011;47054;39.716;2.904;2023-03-31T11:54:53;6.30;;;3.33;;
61188;SDS011;47054;39.716;2.904;2023-03-31T11:57:40;8.48;;;3.95;;
61188;SDS011;47054;39.716;2.904;2023-03-31T12:00:28;7.25;;;3.47;;
61188;SDS011;47054;39.716;2.904;2023-03-31T12:06:17;7.65;;;3.60;;
61188;SDS011;47054;39.716;2.904;2023-03-31T12:12:14;5.95;;;3.20;;
61188;SDS011;47054;39.716;2.904;2023-03-31T12:17:58;5.63;;;3.03;;
61188;SDS011;47054;39.716;2.904;2023-03-31T12:20:52;5.45;;;2.95;;
61188;SDS011;47054;39.716;2.904;2023-03-31T12:23:43;7.70;;;3.25;;
61188;SDS011;47054;39.716;2.904;2023-03-31T12:29:37;7.18;;;2.85;;
61188;SDS011;47054;39.716;2.904;2023-03-31T12:32:29;6.30;;;2.90;;
61188;SDS011;47054;39.716;2.904;2023-03-31T12:45:05;5.53;;;2.80;;
61188;SDS011;47054;39.716;2.904;2023-03-31T12:59:46;5.68;;;2.97;;
61188;SDS011;47054;39.716;2.904;2023-03-31T13:02:49;5.10;;;2.83;;
61188;SDS011;47054;39.716;2.904;2023-03-31T13:14:23;5.07;;;2.72;;
61188;SDS011;47054;39.716;2.904;2023-03-31T13:23:20;6.63;;;2.35;;
61188;SDS011;47054;39.716;2.904;2023-03-31T13:26:33;4.93;;;2.40;;
61188;SDS011;47054;39.716;2.904;2023-03-31T13:32:06;5.45;;;2.80;;
61188;SDS011;47054;39.716;2.904;2023-03-31T13:35:03;4.97;;;2.70;;
61188;SDS011;47054;39.716;2.904;2023-03-31T13:43:47;7.40;;;2.67;;
61188;SDS011;47054;39.716;2.904;2023-03-31T13:46:44;6.05;;;2.80;;
61188;SDS011;47054;39.716;2.904;2023-03-31T13:53:07;6.22;;;2.60;;
61188;SDS011;47054;39.716;2.904;2023-03-31T14:05:31;5.57;;;2.40;;
61188;SDS011;47054;39.716;2.904;2023-03-31T14:08:38;4.63;;;2.30;;
61188;SDS011;47054;39.716;2.904;2023-03-31T14:11:36;6.85;;;2.40;;
61188;SDS011;47054;39.716;2.904;2023-03-31T14:14:23;5.88;;;2.53;;
61188;SDS011;47054;39.716;2.904;2023-03-31T14:17:07;5.93;;;2.75;;
61188;SDS011;47054;39.716;2.904;2023-03-31T14:19:57;4.70;;;2.38;;
61188;SDS011;47054;39.716;2.904;2023-03-31T14:26:09;6.47;;;2.38;;
61188;SDS011;47054;39.716;2.904;2023-03-31T14:38:21;4.03;;;2.15;;
61188;SDS011;47054;39.716;2.904;2023-03-31T14:41:12;5.50;;;2.75;;
61188;SDS011;47054;39.716;2.904;2023-03-31T14:44:00;6.05;;;2.38;;
61188;SDS011;47054;39.716;2.904;2023-03-31T14:46:47;6.00;;;2.50;;
61188;SDS011;47054;39.716;2.904;2023-03-31T14:49:36;4.43;;;2.50;;
61188;SDS011;47054;39.716;2.904;2023-03-31T14:52:21;5.22;;;2.33;;
61188;SDS011;47054;39.716;2.904;2023-03-31T14:55:12;5.40;;;2.70;;
61188;SDS011;47054;39.716;2.904;2023-03-31T14:57:59;4.38;;;2.47;;
61188;SDS011;47054;39.716;2.904;2023-03-31T15:00:45;5.00;;;2.33;;
61188;SDS011;47054;39.716;2.904;2023-03-31T15:03:31;4.82;;;2.58;;
61188;SDS011;47054;39.716;2.904;2023-03-31T15:06:19;4.78;;;2.25;;
61188;SDS011;47054;39.716;2.904;2023-03-31T15:09:09;6.05;;;2.45;;
61188;SDS011;47054;39.716;2.904;2023-03-31T15:12:02;4.28;;;2.42;;
61188;SDS011;47054;39.716;2.904;2023-03-31T15:14:51;5.07;;;2.50;;
61188;SDS011;47054;39.716;2.904;2023-03-31T15:17:40;4.93;;;2.25;;
61188;SDS011;47054;39.716;2.904;2023-03-31T15:20:36;5.38;;;2.20;;
61188;SDS011;47054;39.716;2.904;2023-03-31T15:23:24;3.83;;;2.00;;
61188;SDS011;47054;39.716;2.904;2023-03-31T15:26:11;3.58;;;2.10;;
61188;SDS011;47054;39.716;2.904;2023-03-31T15:29:21;5.60;;;2.30;;
61188;SDS011;47054;39.716;2.904;2023-03-31T15:32:16;4.00;;;2.22;;
61188;SDS011;47054;39.716;2.904;2023-03-31T15:35:18;4.43;;;2.35;;
61188;SDS011;47054;39.716;2.904;2023-03-31T15:38:30;6.18;;;2.60;;
61188;SDS011;47054;39.716;2.904;2023-03-31T15:41:15;4.85;;;2.50;;
61188;SDS011;47054;39.716;2.904;2023-03-31T15:44:07;6.45;;;2.47;;
61188;SDS011;47054;39.716;2.904;2023-03-31T15:52:56;4.00;;;2.10;;
61188;SDS011;47054;39.716;2.904;2023-03-31T15:55:44;3.95;;;2.13;;
61188;SDS011;47054;39.716;2.904;2023-03-31T16:01:50;3.42;;;2.13;;
61188;SDS011;47054;39.716;2.904;2023-03-31T16:04:35;4.22;;;2.10;;
61188;SDS011;47054;39.716;2.904;2023-03-31T16:07:24;4.88;;;2.20;;
61188;SDS011;47054;39.716;2.904;2023-03-31T16:10:20;4.32;;;1.92;;
61188;SDS011;47054;39.716;2.904;2023-03-31T16:13:06;6.25;;;2.10;;
61188;SDS011;47054;39.716;2.904;2023-03-31T16:15:56;3.90;;;2.00;;
61188;SDS011;47054;39.716;2.904;2023-03-31T16:18:44;4.68;;;2.35;;
61188;SDS011;47054;39.716;2.904;2023-03-31T16:21:53;6.93;;;2.65;;
61188;SDS011;47054;39.716;2.904;2023-03-31T16:24:42;4.38;;;2.00;;
61188;SDS011;47054;39.716;2.904;2023-03-31T16:27:27;4.63;;;2.00;;
61188;SDS011;47054;39.716;2.904;2023-03-31T16:30:16;4.47;;;2.00;;
61188;SDS011;47054;39.716;2.904;2023-03-31T16:35:51;5.57;;;2.10;;
61188;SDS011;47054;39.716;2.904;2023-03-31T16:38:39;4.43;;;2.33;;
61188;SDS011;47054;39.716;2.904;2023-03-31T16:41:26;4.75;;;2.08;;
61188;SDS011;47054;39.716;2.904;2023-03-31T16:44:11;3.45;;;1.80;;
61188;SDS011;47054;39.716;2.904;2023-03-31T16:46:56;4.47;;;2.13;;
61188;SDS011;47054;39.716;2.904;2023-03-31T16:49:40;3.67;;;1.90;;
61188;SDS011;47054;39.716;2.904;2023-03-31T16:52:24;5.97;;;2.22;;
61188;SDS011;47054;39.716;2.904;2023-03-31T16:55:09;4.43;;;2.22;;
61188;SDS011;47054;39.716;2.904;2023-03-31T16:57:54;3.65;;;1.88;;
61188;SDS011;47054;39.716;2.904;2023-03-31T17:00:38;4.72;;;2.20;;
61188;SDS011;47054;39.716;2.904;2023-03-31T17:03:25;4.13;;;2.10;;
61188;SDS011;47054;39.716;2.904;2023-03-31T17:06:11;3.95;;;2.10;;
61188;SDS011;47054;39.716;2.904;2023-03-31T17:08:56;3.70;;;2.00;;
61188;SDS011;47054;39.716;2.904;2023-03-31T17:11:41;4.70;;;1.98;;
61188;SDS011;47054;39.716;2.904;2023-03-31T17:14:26;4.32;;;2.28;;
61188;SDS011;47054;39.716;2.904;2023-03-31T17:17:10;3.33;;;1.88;;
61188;SDS011;47054;39.716;2.904;2023-03-31T17:19:55;3.20;;;1.80;;
61188;SDS011;47054;39.716;2.904;2023-03-31T17:22:40;4.57;;;2.10;;
61188;SDS011;47054;39.716;2.904;2023-03-31T17:25:25;4.72;;;1.90;;
61188;SDS011;47054;39.716;2.904;2023-03-31T17:28:10;6.90;;;2.20;;
61188;SDS011;47054;39.716;2.904;2023-03-31T17:30:54;4.22;;;1.90;;
61188;SDS011;47054;39.716;2.904;2023-03-31T17:33:40;5.55;;;1.92;;
61188;SDS011;47054;39.716;2.904;2023-03-31T17:36:25;4.50;;;2.00;;
61188;SDS011;47054;39.716;2.904;2023-03-31T17:39:10;4.13;;;2.00;;
61188;SDS011;47054;39.716;2.904;2023-03-31T17:41:57;3.50;;;1.83;;
61188;SDS011;47054;39.716;2.904;2023-03-31T17:44:41;4.65;;;2.00;;
61188;SDS011;47054;39.716;2.904;2023-03-31T17:47:26;3.60;;;1.95;;
61188;SDS011;47054;39.716;2.904;2023-03-31T17:50:11;5.65;;;1.98;;
61188;SDS011;47054;39.716;2.904;2023-03-31T17:52:55;4.38;;;1.90;;
61188;SDS011;47054;39.716;2.904;2023-03-31T17:55:41;3.60;;;1.80;;
61188;SDS011;47054;39.716;2.904;2023-03-31T17:58:26;3.70;;;1.90;;
61188;SDS011;47054;39.716;2.904;2023-03-31T18:01:11;3.55;;;1.95;;
61188;SDS011;47054;39.716;2.904;2023-03-31T18:03:56;5.30;;;2.10;;
61188;SDS011;47054;39.716;2.904;2023-03-31T18:06:41;2.88;;;1.70;;
61188;SDS011;47054;39.716;2.904;2023-03-31T18:09:27;3.70;;;1.90;;
61188;SDS011;47054;39.716;2.904;2023-03-31T18:12:13;4.13;;;2.10;;
61188;SDS011;47054;39.716;2.904;2023-03-31T18:14:58;4.95;;;1.92;;
61188;SDS011;47054;39.716;2.904;2023-03-31T18:17:42;5.57;;;1.95;;
61188;SDS011;47054;39.716;2.904;2023-03-31T18:20:27;4.90;;;1.77;;
61188;SDS011;47054;39.716;2.904;2023-03-31T18:23:11;3.30;;;1.90;;
61188;SDS011;47054;39.716;2.904;2023-03-31T18:25:56;5.43;;;2.17;;
61188;SDS011;47054;39.716;2.904;2023-03-31T18:28:41;5.18;;;2.05;;
61188;SDS011;47054;39.716;2.904;2023-03-31T18:31:27;3.78;;;2.13;;
61188;SDS011;47054;39.716;2.904;2023-03-31T18:34:12;3.88;;;1.90;;
61188;SDS011;47054;39.716;2.904;2023-03-31T18:36:59;5.10;;;2.00;;
61188;SDS011;47054;39.716;2.904;2023-03-31T18:39:43;4.30;;;2.08;;
61188;SDS011;47054;39.716;2.904;2023-03-31T18:42:27;3.92;;;2.10;;
61188;SDS011;47054;39.716;2.904;2023-03-31T18:45:12;3.75;;;2.08;;
61188;SDS011;47054;39.716;2.904;2023-03-31T18:47:56;8.02;;;3.80;;
61188;SDS011;47054;39.716;2.904;2023-03-31T18:50:42;5.53;;;2.17;;
61188;SDS011;47054;39.716;2.904;2023-03-31T18:53:27;4.82;;;2.40;;
61188;SDS011;47054;39.716;2.904;2023-03-31T18:56:13;6.13;;;2.55;;
61188;SDS011;47054;39.716;2.904;2023-03-31T18:58:58;6.05;;;2.67;;
61188;SDS011;47054;39.716;2.904;2023-03-31T19:01:42;5.65;;;3.13;;
61188;SDS011;47054;39.716;2.904;2023-03-31T19:04:27;6.60;;;2.53;;
61188;SDS011;47054;39.716;2.904;2023-03-31T19:07:13;8.77;;;3.53;;
61188;SDS011;47054;39.716;2.904;2023-03-31T19:09:58;8.60;;;3.38;;
61188;SDS011;47054;39.716;2.904;2023-03-31T19:12:46;6.78;;;3.17;;
61188;SDS011;47054;39.716;2.904;2023-03-31T19:15:32;11.73;;;4.38;;
61188;SDS011;47054;39.716;2.904;2023-03-31T19:18:17;10.30;;;4.07;;
61188;SDS011;47054;39.716;2.904;2023-03-31T19:21:02;8.60;;;3.42;;
61188;SDS011;47054;39.716;2.904;2023-03-31T19:23:47;8.07;;;3.33;;
61188;SDS011;47054;39.716;2.904;2023-03-31T19:26:31;9.77;;;3.80;;
61188;SDS011;47054;39.716;2.904;2023-03-31T19:29:16;7.22;;;3.45;;
61188;SDS011;47054;39.716;2.904;2023-03-31T19:32:01;10.90;;;4.50;;
61188;SDS011;47054;39.716;2.904;2023-03-31T19:34:45;10.80;;;3.92;;
61188;SDS011;47054;39.716;2.904;2023-03-31T19:37:30;9.13;;;4.45;;
61188;SDS011;47054;39.716;2.904;2023-03-31T19:40:15;11.02;;;4.72;;
61188;SDS011;47054;39.716;2.904;2023-03-31T19:42:59;13.77;;;5.05;;
61188;SDS011;47054;39.716;2.904;2023-03-31T19:45:44;10.73;;;4.47;;
61188;SDS011;47054;39.716;2.904;2023-03-31T19:48:29;12.55;;;4.70;;
61188;SDS011;47054;39.716;2.904;2023-03-31T19:51:16;14.32;;;5.18;;
61188;SDS011;47054;39.716;2.904;2023-03-31T19:54:02;14.25;;;5.15;;
61188;SDS011;47054;39.716;2.904;2023-03-31T19:56:46;13.23;;;5.10;;
61188;SDS011;47054;39.716;2.904;2023-03-31T19:59:32;13.88;;;5.28;;
61188;SDS011;47054;39.716;2.904;2023-03-31T20:02:17;14.32;;;5.82;;
61188;SDS011;47054;39.716;2.904;2023-03-31T20:05:02;11.90;;;4.88;;
61188;SDS011;47054;39.716;2.904;2023-03-31T20:07:47;10.55;;;5.05;;
61188;SDS011;47054;39.716;2.904;2023-03-31T20:10:31;14.52;;;5.40;;
61188;SDS011;47054;39.716;2.904;2023-03-31T20:13:16;13.48;;;5.65;;
61188;SDS011;47054;39.716;2.904;2023-03-31T20:16:03;13.85;;;5.20;;